sensor_id;sensor_type;location;lat;lon;timestamp;temperature;humidity
63325;SHT31;49451;52.390;13.028;2022-09-24T07:15:31;12.42;77.17
63325;SHT31;49451;52.390;13.028;2022-09-24T07:17:58;12.38;76.82
63325;SHT31;49451;52.390;13.028;2022-09-24T07:20:26;12.26;77.54
63325;SHT31;49451;52.390;13.028;2022-09-24T07:23:16;12.34;77.15
63325;SHT31;49451;52.390;13.028;2022-09-24T07:25:55;12.69;76.70
63325;SHT31;49451;52.390;13.028;2022-09-24T07:28:28;12.55;76.35
63325;SHT31;49451;52.390;13.028;2022-09-24T07:30:58;13.00;76.22
63325;SHT31;49451;52.390;13.028;2022-09-24T07:33:23;12.90;74.56
63325;SHT31;49451;52.390;13.028;2022-09-24T07:35:49;12.91;74.63
63325;SHT31;49451;52.390;13.028;2022-09-24T07:38:15;13.04;74.82
63325;SHT31;49451;52.390;13.028;2022-09-24T07:40:43;13.00;74.77
63325;SHT31;49451;52.390;13.028;2022-09-24T07:43:09;12.97;75.25
63325;SHT31;49451;52.390;13.028;2022-09-24T07:45:38;13.18;74.91
63325;SHT31;49451;52.390;13.028;2022-09-24T07:48:04;13.24;74.04
63325;SHT31;49451;52.390;13.028;2022-09-24T07:50:31;13.08;74.47
63325;SHT31;49451;52.390;13.028;2022-09-24T07:52:57;13.10;74.80
63325;SHT31;49451;52.390;13.028;2022-09-24T07:55:23;12.94;75.47
63325;SHT31;49451;52.390;13.028;2022-09-24T07:57:51;13.15;74.66
63325;SHT31;49451;52.390;13.028;2022-09-24T08:00:18;13.21;74.06
63325;SHT31;49451;52.390;13.028;2022-09-24T08:02:45;13.37;74.74
63325;SHT31;49451;52.390;13.028;2022-09-24T08:05:13;13.51;73.98
63325;SHT31;49451;52.390;13.028;2022-09-24T08:07:40;13.37;73.57
63325;SHT31;49451;52.390;13.028;2022-09-24T08:10:06;13.77;73.02
63325;SHT31;49451;52.390;13.028;2022-09-24T08:12:32;13.28;73.73
63325;SHT31;49451;52.390;13.028;2022-09-24T08:14:57;13.03;74.39
63325;SHT31;49451;52.390;13.028;2022-09-24T08:17:23;13.44;74.55
63325;SHT31;49451;52.390;13.028;2022-09-24T08:19:49;13.66;72.32
63325;SHT31;49451;52.390;13.028;2022-09-24T08:22:16;13.08;73.49
63325;SHT31;49451;52.390;13.028;2022-09-24T08:24:41;12.86;75.07
63325;SHT31;49451;52.390;13.028;2022-09-24T08:27:08;13.35;75.94
63325;SHT31;49451;52.390;13.028;2022-09-24T08:29:33;13.27;75.21
63325;SHT31;49451;52.390;13.028;2022-09-24T08:31:59;12.96;75.75
63325;SHT31;49451;52.390;13.028;2022-09-24T08:34:25;13.18;75.04
63325;SHT31;49451;52.390;13.028;2022-09-24T08:36:50;13.18;75.10
63325;SHT31;49451;52.390;13.028;2022-09-24T08:39:16;13.07;75.28
63325;SHT31;49451;52.390;13.028;2022-09-24T08:41:57;13.15;74.69
63325;SHT31;49451;52.390;13.028;2022-09-24T08:50:00;14.00;72.96
63325;SHT31;49451;52.390;13.028;2022-09-24T08:55:17;14.20;72.64
63325;SHT31;49451;52.390;13.028;2022-09-24T08:57:56;14.62;71.96
63325;SHT31;49451;52.390;13.028;2022-09-24T09:00:23;14.80;71.18
63325;SHT31;49451;52.390;13.028;2022-09-24T09:02:59;14.97;70.96
63325;SHT31;49451;52.390;13.028;2022-09-24T09:05:58;15.08;71.14
63325;SHT31;49451;52.390;13.028;2022-09-24T09:11:09;14.31;72.85
63325;SHT31;49451;52.390;13.028;2022-09-24T09:13:44;14.75;72.15
63325;SHT31;49451;52.390;13.028;2022-09-24T09:19:04;14.97;70.85
63325;SHT31;49451;52.390;13.028;2022-09-24T09:21:46;15.06;70.33
63325;SHT31;49451;52.390;13.028;2022-09-24T09:24:19;15.16;70.86
63325;SHT31;49451;52.390;13.028;2022-09-24T09:26:49;14.49;71.84
63325;SHT31;49451;52.390;13.028;2022-09-24T09:29:18;14.51;73.93
63325;SHT31;49451;52.390;13.028;2022-09-24T09:40:32;14.14;74.55
63325;SHT31;49451;52.390;13.028;2022-09-24T09:43:01;14.49;74.25
63325;SHT31;49451;52.390;13.028;2022-09-24T09:45:43;14.95;72.22
63325;SHT31;49451;52.390;13.028;2022-09-24T09:48:10;15.06;71.52
63325;SHT31;49451;52.390;13.028;2022-09-24T09:50:46;15.17;71.76
63325;SHT31;49451;52.390;13.028;2022-09-24T09:53:22;14.68;72.49
63325;SHT31;49451;52.390;13.028;2022-09-24T09:55:59;14.61;73.45
63325;SHT31;49451;52.390;13.028;2022-09-24T09:58:43;14.80;73.13
63325;SHT31;49451;52.390;13.028;2022-09-24T10:01:13;14.68;73.91
63325;SHT31;49451;52.390;13.028;2022-09-24T10:03:47;14.32;74.50
63325;SHT31;49451;52.390;13.028;2022-09-24T10:06:23;14.46;74.00
63325;SHT31;49451;52.390;13.028;2022-09-24T10:08:49;14.61;73.73
63325;SHT31;49451;52.390;13.028;2022-09-24T10:11:15;14.75;74.33
63325;SHT31;49451;52.390;13.028;2022-09-24T10:13:41;15.04;73.74
63325;SHT31;49451;52.390;13.028;2022-09-24T10:16:08;14.95;72.33
63325;SHT31;49451;52.390;13.028;2022-09-24T10:18:45;15.13;71.26
63325;SHT31;49451;52.390;13.028;2022-09-24T10:21:14;15.59;71.95
63325;SHT31;49451;52.390;13.028;2022-09-24T10:23:49;15.66;71.14
63325;SHT31;49451;52.390;13.028;2022-09-24T10:26:15;15.82;69.83
63325;SHT31;49451;52.390;13.028;2022-09-24T10:28:46;15.98;69.99
63325;SHT31;49451;52.390;13.028;2022-09-24T10:31:34;15.99;68.72
63325;SHT31;49451;52.390;13.028;2022-09-24T10:34:01;16.23;69.93
63325;SHT31;49451;52.390;13.028;2022-09-24T10:36:30;16.31;69.26
63325;SHT31;49451;52.390;13.028;2022-09-24T10:39:14;16.21;68.86
63325;SHT31;49451;52.390;13.028;2022-09-24T10:41:47;16.37;67.31
63325;SHT31;49451;52.390;13.028;2022-09-24T10:44:13;16.05;68.86
63325;SHT31;49451;52.390;13.028;2022-09-24T11:00:41;16.74;65.43
63325;SHT31;49451;52.390;13.028;2022-09-24T11:06:36;17.55;67.44
63325;SHT31;49451;52.390;13.028;2022-09-24T11:25:43;18.83;62.87
63325;SHT31;49451;52.390;13.028;2022-09-24T11:36:54;18.33;65.92
63325;SHT31;49451;52.390;13.028;2022-09-24T11:39:49;18.33;64.46
63325;SHT31;49451;52.390;13.028;2022-09-24T11:42:26;18.43;65.65
63325;SHT31;49451;52.390;13.028;2022-09-24T11:54:02;18.26;64.39
63325;SHT31;49451;52.390;13.028;2022-09-24T11:56:35;17.61;66.46
63325;SHT31;49451;52.390;13.028;2022-09-24T11:59:16;18.03;66.29
63325;SHT31;49451;52.390;13.028;2022-09-24T12:01:50;18.32;66.68
63325;SHT31;49451;52.390;13.028;2022-09-24T12:04:26;18.28;65.93
63325;SHT31;49451;52.390;13.028;2022-09-24T12:07:06;18.23;67.98
63325;SHT31;49451;52.390;13.028;2022-09-24T12:10:17;17.99;65.39
63325;SHT31;49451;52.390;13.028;2022-09-24T12:12:39;18.29;65.03
63325;SHT31;49451;52.390;13.028;2022-09-24T12:15:32;18.49;64.54
63325;SHT31;49451;52.390;13.028;2022-09-24T12:18:06;18.65;64.59
63325;SHT31;49451;52.390;13.028;2022-09-24T12:20:43;18.75;62.71
63325;SHT31;49451;52.390;13.028;2022-09-24T12:23:13;18.75;62.76
63325;SHT31;49451;52.390;13.028;2022-09-24T12:25:43;18.95;61.71
63325;SHT31;49451;52.390;13.028;2022-09-24T12:28:16;19.32;61.41
63325;SHT31;49451;52.390;13.028;2022-09-24T12:31:14;18.98;63.19
63325;SHT31;49451;52.390;13.028;2022-09-24T12:34:24;18.92;62.88
63325;SHT31;49451;52.390;13.028;2022-09-24T12:37:12;19.36;59.91
63325;SHT31;49451;52.390;13.028;2022-09-24T12:39:47;19.46;59.65
63325;SHT31;49451;52.390;13.028;2022-09-24T12:42:37;19.36;60.92
63325;SHT31;49451;52.390;13.028;2022-09-24T12:45:11;19.22;60.17
63325;SHT31;49451;52.390;13.028;2022-09-24T12:47:49;19.25;60.13
63325;SHT31;49451;52.390;13.028;2022-09-24T12:50:30;19.39;60.65
63325;SHT31;49451;52.390;13.028;2022-09-24T12:52:57;19.36;60.96
63325;SHT31;49451;52.390;13.028;2022-09-24T12:55:33;18.95;62.71
63325;SHT31;49451;52.390;13.028;2022-09-24T12:58:24;19.27;60.53
63325;SHT31;49451;52.390;13.028;2022-09-24T13:00:51;19.71;58.14
63325;SHT31;49451;52.390;13.028;2022-09-24T13:03:35;20.04;59.37
63325;SHT31;49451;52.390;13.028;2022-09-24T13:06:02;20.08;59.47
63325;SHT31;49451;52.390;13.028;2022-09-24T13:08:37;19.78;58.81
63325;SHT31;49451;52.390;13.028;2022-09-24T13:20:37;19.12;57.65
63325;SHT31;49451;52.390;13.028;2022-09-24T13:26:06;19.40;60.08
63325;SHT31;49451;52.390;13.028;2022-09-24T13:29:02;19.26;60.26
63325;SHT31;49451;52.390;13.028;2022-09-24T13:31:36;19.57;60.22
63325;SHT31;49451;52.390;13.028;2022-09-24T13:34:20;19.95;60.09
63325;SHT31;49451;52.390;13.028;2022-09-24T13:37:14;19.85;60.32
63325;SHT31;49451;52.390;13.028;2022-09-24T13:42:54;19.54;61.33
63325;SHT31;49451;52.390;13.028;2022-09-24T13:45:23;19.70;60.82
63325;SHT31;49451;52.390;13.028;2022-09-24T13:48:03;19.67;61.36
63325;SHT31;49451;52.390;13.028;2022-09-24T13:50:34;19.45;60.73
63325;SHT31;49451;52.390;13.028;2022-09-24T13:53:04;19.40;62.84
63325;SHT31;49451;52.390;13.028;2022-09-24T13:55:45;19.27;62.22
63325;SHT31;49451;52.390;13.028;2022-09-24T14:00:59;18.99;60.97
63325;SHT31;49451;52.390;13.028;2022-09-24T14:03:29;18.92;62.79
63325;SHT31;49451;52.390;13.028;2022-09-24T14:05:55;18.79;63.94
63325;SHT31;49451;52.390;13.028;2022-09-24T14:08:22;18.70;63.78
63325;SHT31;49451;52.390;13.028;2022-09-24T14:10:49;18.46;62.48
63325;SHT31;49451;52.390;13.028;2022-09-24T14:13:20;18.39;62.97
63325;SHT31;49451;52.390;13.028;2022-09-24T14:18:18;18.39;64.81
63325;SHT31;49451;52.390;13.028;2022-09-24T14:20:51;18.41;63.01
63325;SHT31;49451;52.390;13.028;2022-09-24T14:23:19;18.47;63.25
63325;SHT31;49451;52.390;13.028;2022-09-24T14:25:46;18.64;63.08
63325;SHT31;49451;52.390;13.028;2022-09-24T14:28:13;18.81;63.09
63325;SHT31;49451;52.390;13.028;2022-09-24T14:30:53;18.87;64.15
63325;SHT31;49451;52.390;13.028;2022-09-24T14:33:22;19.16;63.73
63325;SHT31;49451;52.390;13.028;2022-09-24T14:35:51;19.11;62.71
63325;SHT31;49451;52.390;13.028;2022-09-24T14:38:25;19.01;63.22
63325;SHT31;49451;52.390;13.028;2022-09-24T14:41:17;18.85;62.89
63325;SHT31;49451;52.390;13.028;2022-09-24T14:43:51;18.29;64.15
63325;SHT31;49451;52.390;13.028;2022-09-24T14:46:21;18.56;63.03
63325;SHT31;49451;52.390;13.028;2022-09-24T14:48:47;18.63;63.94
63325;SHT31;49451;52.390;13.028;2022-09-24T14:51:27;18.51;64.50
63325;SHT31;49451;52.390;13.028;2022-09-24T14:54:27;18.44;63.46
63325;SHT31;49451;52.390;13.028;2022-09-24T14:56:54;18.46;64.39
63325;SHT31;49451;52.390;13.028;2022-09-24T14:59:30;18.49;62.81
63325;SHT31;49451;52.390;13.028;2022-09-24T15:02:21;18.33;62.40
63325;SHT31;49451;52.390;13.028;2022-09-24T15:04:58;18.32;64.22
63325;SHT31;49451;52.390;13.028;2022-09-24T15:07:26;18.34;63.97
63325;SHT31;49451;52.390;13.028;2022-09-24T15:09:54;18.28;63.81
63325;SHT31;49451;52.390;13.028;2022-09-24T15:12:33;18.09;64.88
63325;SHT31;49451;52.390;13.028;2022-09-24T15:17:41;17.71;66.77
63325;SHT31;49451;52.390;13.028;2022-09-24T15:20:09;17.77;65.80
63325;SHT31;49451;52.390;13.028;2022-09-24T15:22:35;17.65;67.01
63325;SHT31;49451;52.390;13.028;2022-09-24T15:25:00;17.73;67.78
63325;SHT31;49451;52.390;13.028;2022-09-24T15:27:28;17.41;66.75
63325;SHT31;49451;52.390;13.028;2022-09-24T15:29:55;17.41;67.33
63325;SHT31;49451;52.390;13.028;2022-09-24T15:32:28;17.43;66.88
63325;SHT31;49451;52.390;13.028;2022-09-24T15:34:53;17.43;67.61
63325;SHT31;49451;52.390;13.028;2022-09-24T15:37:22;17.48;69.01
63325;SHT31;49451;52.390;13.028;2022-09-24T15:39:48;17.47;69.07
63325;SHT31;49451;52.390;13.028;2022-09-24T15:42:19;17.33;68.76
63325;SHT31;49451;52.390;13.028;2022-09-24T15:44:45;17.23;68.95
63325;SHT31;49451;52.390;13.028;2022-09-24T15:47:12;17.23;69.53
63325;SHT31;49451;52.390;13.028;2022-09-24T15:49:38;17.22;69.82
63325;SHT31;49451;52.390;13.028;2022-09-24T15:52:13;17.18;69.40
63325;SHT31;49451;52.390;13.028;2022-09-24T15:54:39;17.20;70.90
63325;SHT31;49451;52.390;13.028;2022-09-24T15:57:05;17.05;69.95
63325;SHT31;49451;52.390;13.028;2022-09-24T15:59:30;16.99;70.84
63325;SHT31;49451;52.390;13.028;2022-09-24T16:02:01;16.85;69.51
63325;SHT31;49451;52.390;13.028;2022-09-24T16:04:27;16.82;69.94
63325;SHT31;49451;52.390;13.028;2022-09-24T16:06:53;16.78;69.95
63325;SHT31;49451;52.390;13.028;2022-09-24T16:09:18;16.48;69.55
63325;SHT31;49451;52.390;13.028;2022-09-24T16:11:44;16.53;70.33
63325;SHT31;49451;52.390;13.028;2022-09-24T16:14:09;16.54;70.00
63325;SHT31;49451;52.390;13.028;2022-09-24T16:16:37;16.48;70.58
63325;SHT31;49451;52.390;13.028;2022-09-24T16:19:03;16.03;71.10
63325;SHT31;49451;52.390;13.028;2022-09-24T16:21:31;16.20;71.76
63325;SHT31;49451;52.390;13.028;2022-09-24T16:23:57;16.20;72.41
63325;SHT31;49451;52.390;13.028;2022-09-24T16:26:22;16.23;72.47
63325;SHT31;49451;52.390;13.028;2022-09-24T16:28:48;16.07;71.58
63325;SHT31;49451;52.390;13.028;2022-09-24T16:31:16;16.12;71.57
63325;SHT31;49451;52.390;13.028;2022-09-24T16:33:42;15.95;72.45
63325;SHT31;49451;52.390;13.028;2022-09-24T16:36:08;15.95;72.42
63325;SHT31;49451;52.390;13.028;2022-09-24T16:38:57;15.81;73.28
63325;SHT31;49451;52.390;13.028;2022-09-24T16:41:24;15.85;73.66
63325;SHT31;49451;52.390;13.028;2022-09-24T16:43:54;15.77;73.28
63325;SHT31;49451;52.390;13.028;2022-09-24T16:46:19;15.59;74.14
63325;SHT31;49451;52.390;13.028;2022-09-24T16:48:48;15.63;74.45
63325;SHT31;49451;52.390;13.028;2022-09-24T16:51:13;15.65;74.25
63325;SHT31;49451;52.390;13.028;2022-09-24T16:53:38;15.59;74.56
63325;SHT31;49451;52.390;13.028;2022-09-24T16:56:14;15.47;75.52
63325;SHT31;49451;52.390;13.028;2022-09-24T16:58:41;15.52;74.95
63325;SHT31;49451;52.390;13.028;2022-09-24T17:01:09;15.45;75.18
63325;SHT31;49451;52.390;13.028;2022-09-24T17:03:35;15.34;74.37
63325;SHT31;49451;52.390;13.028;2022-09-24T17:06:01;15.26;74.83
63325;SHT31;49451;52.390;13.028;2022-09-24T17:08:30;15.33;74.20
63325;SHT31;49451;52.390;13.028;2022-09-24T17:11:14;15.34;75.45
63325;SHT31;49451;52.390;13.028;2022-09-24T17:13:39;15.34;75.22
63325;SHT31;49451;52.390;13.028;2022-09-24T17:16:05;15.14;75.68
63325;SHT31;49451;52.390;13.028;2022-09-24T17:18:30;15.22;76.56
63325;SHT31;49451;52.390;13.028;2022-09-24T17:21:04;15.23;76.60
63325;SHT31;49451;52.390;13.028;2022-09-24T17:23:30;15.03;75.00
63325;SHT31;49451;52.390;13.028;2022-09-24T17:26:17;15.07;75.35
63325;SHT31;49451;52.390;13.028;2022-09-24T17:28:45;15.14;75.39
63325;SHT31;49451;52.390;13.028;2022-09-24T17:31:13;15.08;74.69
63325;SHT31;49451;52.390;13.028;2022-09-24T17:33:39;15.13;74.87
63325;SHT31;49451;52.390;13.028;2022-09-24T17:36:09;15.06;74.71
63325;SHT31;49451;52.390;13.028;2022-09-24T17:38:35;15.07;75.19
63325;SHT31;49451;52.390;13.028;2022-09-24T17:41:11;15.06;75.33
63325;SHT31;49451;52.390;13.028;2022-09-24T17:43:40;15.03;76.05
63325;SHT31;49451;52.390;13.028;2022-09-24T17:46:09;14.96;76.41
63325;SHT31;49451;52.390;13.028;2022-09-24T17:48:38;14.89;76.10
63325;SHT31;49451;52.390;13.028;2022-09-24T17:51:10;15.07;75.32
63325;SHT31;49451;52.390;13.028;2022-09-24T17:53:37;14.93;75.84
63325;SHT31;49451;52.390;13.028;2022-09-24T17:56:04;14.99;76.12
63325;SHT31;49451;52.390;13.028;2022-09-24T17:58:31;14.92;76.20
63325;SHT31;49451;52.390;13.028;2022-09-24T18:01:06;14.93;75.39
63325;SHT31;49451;52.390;13.028;2022-09-24T18:03:32;15.00;74.69
63325;SHT31;49451;52.390;13.028;2022-09-24T18:06:02;14.89;75.52
63325;SHT31;49451;52.390;13.028;2022-09-24T18:08:27;14.89;75.79
63325;SHT31;49451;52.390;13.028;2022-09-24T18:11:08;14.87;76.20
63325;SHT31;49451;52.390;13.028;2022-09-24T18:13:34;14.82;76.00
63325;SHT31;49451;52.390;13.028;2022-09-24T18:16:10;14.75;76.16
63325;SHT31;49451;52.390;13.028;2022-09-24T18:18:36;14.90;75.67
63325;SHT31;49451;52.390;13.028;2022-09-24T18:21:04;14.80;76.72
63325;SHT31;49451;52.390;13.028;2022-09-24T18:23:31;14.83;76.39
63325;SHT31;49451;52.390;13.028;2022-09-24T18:28:38;14.87;76.19
63325;SHT31;49451;52.390;13.028;2022-09-24T18:31:06;14.80;76.10
63325;SHT31;49451;52.390;13.028;2022-09-24T18:33:33;14.65;77.05
63325;SHT31;49451;52.390;13.028;2022-09-24T18:36:03;14.59;77.05
63325;SHT31;49451;52.390;13.028;2022-09-24T18:38:29;14.72;77.17
63325;SHT31;49451;52.390;13.028;2022-09-24T18:40:56;14.80;76.99
63325;SHT31;49451;52.390;13.028;2022-09-24T18:43:22;14.71;76.93
63325;SHT31;49451;52.390;13.028;2022-09-24T18:45:47;14.71;77.19
63325;SHT31;49451;52.390;13.028;2022-09-24T18:48:13;14.65;77.66
63325;SHT31;49451;52.390;13.028;2022-09-24T18:50:43;14.62;77.83
63325;SHT31;49451;52.390;13.028;2022-09-24T18:53:08;14.46;78.56
63325;SHT31;49451;52.390;13.028;2022-09-24T18:55:41;14.30;79.45
63325;SHT31;49451;52.390;13.028;2022-09-24T18:58:07;14.37;78.48
63325;SHT31;49451;52.390;13.028;2022-09-24T19:00:35;14.51;78.71
63325;SHT31;49451;52.390;13.028;2022-09-24T19:03:22;14.44;78.50
63325;SHT31;49451;52.390;13.028;2022-09-24T19:05:52;14.51;78.16
63325;SHT31;49451;52.390;13.028;2022-09-24T19:08:18;14.55;78.01
63325;SHT31;49451;52.390;13.028;2022-09-24T19:10:47;14.49;77.82
63325;SHT31;49451;52.390;13.028;2022-09-24T19:13:14;14.49;77.71
63325;SHT31;49451;52.390;13.028;2022-09-24T19:15:40;14.59;77.13
63325;SHT31;49451;52.390;13.028;2022-09-24T19:18:14;14.57;77.27
63325;SHT31;49451;52.390;13.028;2022-09-24T19:20:43;14.58;77.40
63325;SHT31;49451;52.390;13.028;2022-09-24T19:23:15;14.64;76.62
63325;SHT31;49451;52.390;13.028;2022-09-24T19:25:42;14.52;77.13
63325;SHT31;49451;52.390;13.028;2022-09-24T19:28:10;14.61;77.44
63325;SHT31;49451;52.390;13.028;2022-09-24T19:30:40;14.44;77.58
63325;SHT31;49451;52.390;13.028;2022-09-24T19:33:11;14.51;77.81
63325;SHT31;49451;52.390;13.028;2022-09-24T19:35:58;14.44;77.33
63325;SHT31;49451;52.390;13.028;2022-09-24T19:38:30;14.52;77.63
63325;SHT31;49451;52.390;13.028;2022-09-24T19:43:29;14.37;77.73
63325;SHT31;49451;52.390;13.028;2022-09-24T19:45:59;14.40;77.45
63325;SHT31;49451;52.390;13.028;2022-09-24T19:48:26;14.41;77.31
63325;SHT31;49451;52.390;13.028;2022-09-24T19:51:00;14.35;77.59
63325;SHT31;49451;52.390;13.028;2022-09-24T19:53:27;14.45;77.96
63325;SHT31;49451;52.390;13.028;2022-09-24T19:55:53;14.30;78.08
63325;SHT31;49451;52.390;13.028;2022-09-24T19:58:19;14.35;77.19
63325;SHT31;49451;52.390;13.028;2022-09-24T20:00:44;14.34;76.99
63325;SHT31;49451;52.390;13.028;2022-09-24T20:03:10;14.37;77.59
63325;SHT31;49451;52.390;13.028;2022-09-24T20:05:36;14.38;76.64
63325;SHT31;49451;52.390;13.028;2022-09-24T20:08:02;14.31;76.80
63325;SHT31;49451;52.390;13.028;2022-09-24T20:10:28;14.32;76.95
63325;SHT31;49451;52.390;13.028;2022-09-24T20:12:55;14.30;77.39
63325;SHT31;49451;52.390;13.028;2022-09-24T20:15:21;14.27;77.44
63325;SHT31;49451;52.390;13.028;2022-09-24T20:17:47;14.17;76.95
63325;SHT31;49451;52.390;13.028;2022-09-24T20:20:13;14.22;77.04
63325;SHT31;49451;52.390;13.028;2022-09-24T20:22:38;14.30;76.67
63325;SHT31;49451;52.390;13.028;2022-09-24T20:25:04;14.27;76.65
63325;SHT31;49451;52.390;13.028;2022-09-24T20:27:30;14.17;77.53
63325;SHT31;49451;52.390;13.028;2022-09-24T20:30:14;14.22;77.13
63325;SHT31;49451;52.390;13.028;2022-09-24T20:32:39;14.11;77.43
63325;SHT31;49451;52.390;13.028;2022-09-24T20:35:08;14.16;77.31
63325;SHT31;49451;52.390;13.028;2022-09-24T20:37:35;14.16;77.25
63325;SHT31;49451;52.390;13.028;2022-09-24T20:40:01;14.07;77.70
63325;SHT31;49451;52.390;13.028;2022-09-24T20:42:26;14.04;77.74
63325;SHT31;49451;52.390;13.028;2022-09-24T20:44:52;14.04;77.44
63325;SHT31;49451;52.390;13.028;2022-09-24T20:47:17;14.03;77.50
63325;SHT31;49451;52.390;13.028;2022-09-24T20:49:43;14.09;77.47
63325;SHT31;49451;52.390;13.028;2022-09-24T20:52:08;14.13;77.93
63325;SHT31;49451;52.390;13.028;2022-09-24T20:54:34;14.13;77.67
63325;SHT31;49451;52.390;13.028;2022-09-24T20:56:59;14.20;77.31
63325;SHT31;49451;52.390;13.028;2022-09-24T20:59:25;14.16;77.74
63325;SHT31;49451;52.390;13.028;2022-09-24T21:01:51;14.18;78.05
63325;SHT31;49451;52.390;13.028;2022-09-24T21:04:17;14.13;78.37
63325;SHT31;49451;52.390;13.028;2022-09-24T21:06:44;14.04;78.37
63325;SHT31;49451;52.390;13.028;2022-09-24T21:09:11;14.06;77.99
63325;SHT31;49451;52.390;13.028;2022-09-24T21:11:36;14.09;78.23
63325;SHT31;49451;52.390;13.028;2022-09-24T21:14:02;14.11;78.50
63325;SHT31;49451;52.390;13.028;2022-09-24T21:16:30;14.04;78.00
63325;SHT31;49451;52.390;13.028;2022-09-24T21:18:57;13.96;78.26
63325;SHT31;49451;52.390;13.028;2022-09-24T21:21:27;14.02;78.46
63325;SHT31;49451;52.390;13.028;2022-09-24T21:23:54;13.91;78.38
63325;SHT31;49451;52.390;13.028;2022-09-24T21:26:25;13.94;79.01
63325;SHT31;49451;52.390;13.028;2022-09-24T21:31:29;13.86;78.42
63325;SHT31;49451;52.390;13.028;2022-09-24T21:33:56;14.06;78.49
63325;SHT31;49451;52.390;13.028;2022-09-24T21:36:23;13.97;79.06
63325;SHT31;49451;52.390;13.028;2022-09-24T21:38:56;14.04;78.58
63325;SHT31;49451;52.390;13.028;2022-09-24T21:41:23;13.96;79.15
63325;SHT31;49451;52.390;13.028;2022-09-24T21:43:49;13.96;78.88
